sensor_id;sensor_type;location;lat;lon;timestamp;P1;durP1;ratioP1;P2;durP2;ratioP2
7501;SDS011;3792;47.740;7.606;2024-02-04T00:02:05;1.63;;;1.53;;
7501;SDS011;3792;47.740;7.606;2024-02-04T00:04:32;1.47;;;1.37;;
7501;SDS011;3792;47.740;7.606;2024-02-04T00:06:59;2.00;;;1.53;;
7501;SDS011;3792;47.740;7.606;2024-02-04T00:09:26;1.70;;;1.60;;
7501;SDS011;3792;47.740;7.606;2024-02-04T00:11:54;1.43;;;1.33;;
7501;SDS011;3792;47.740;7.606;2024-02-04T00:14:21;1.97;;;1.40;;
7501;SDS011;3792;47.740;7.606;2024-02-04T00:16:48;1.60;;;1.50;;
7501;SDS011;3792;47.740;7.606;2024-02-04T00:19:16;1.20;;;1.17;;
7501;SDS011;3792;47.740;7.606;2024-02-04T00:21:43;1.43;;;1.33;;
7501;SDS011;3792;47.740;7.606;2024-02-04T00:24:10;1.30;;;1.20;;
7501;SDS011;3792;47.740;7.606;2024-02-04T00:26:37;1.20;;;1.20;;
7501;SDS011;3792;47.740;7.606;2024-02-04T00:29:04;1.60;;;1.50;;
7501;SDS011;3792;47.740;7.606;2024-02-04T00:31:31;1.20;;;1.13;;
7501;SDS011;3792;47.740;7.606;2024-02-04T00:33:58;1.40;;;1.30;;
7501;SDS011;3792;47.740;7.606;2024-02-04T00:36:27;1.97;;;1.80;;
7501;SDS011;3792;47.740;7.606;2024-02-04T00:38:54;1.50;;;1.23;;
7501;SDS011;3792;47.740;7.606;2024-02-04T00:41:21;1.40;;;1.30;;
7501;SDS011;3792;47.740;7.606;2024-02-04T00:43:48;1.67;;;1.57;;
7501;SDS011;3792;47.740;7.606;2024-02-04T00:46:15;1.53;;;1.43;;
7501;SDS011;3792;47.740;7.606;2024-02-04T00:48:42;1.50;;;1.40;;
7501;SDS011;3792;47.740;7.606;2024-02-04T00:51:09;1.27;;;1.17;;
7501;SDS011;3792;47.740;7.606;2024-02-04T00:53:39;1.47;;;1.30;;
7501;SDS011;3792;47.740;7.606;2024-02-04T00:56:06;1.60;;;1.50;;
7501;SDS011;3792;47.740;7.606;2024-02-04T00:58:34;1.90;;;1.37;;
7501;SDS011;3792;47.740;7.606;2024-02-04T01:01:01;1.33;;;1.23;;
7501;SDS011;3792;47.740;7.606;2024-02-04T01:03:28;1.70;;;1.60;;
7501;SDS011;3792;47.740;7.606;2024-02-04T01:05:57;1.60;;;1.50;;
7501;SDS011;3792;47.740;7.606;2024-02-04T01:08:24;2.57;;;1.60;;
7501;SDS011;3792;47.740;7.606;2024-02-04T01:10:52;1.50;;;1.40;;
7501;SDS011;3792;47.740;7.606;2024-02-04T01:13:19;1.50;;;1.40;;
7501;SDS011;3792;47.740;7.606;2024-02-04T01:15:46;1.60;;;1.50;;
7501;SDS011;3792;47.740;7.606;2024-02-04T01:18:13;1.63;;;1.50;;
7501;SDS011;3792;47.740;7.606;2024-02-04T01:20:40;1.23;;;1.20;;
7501;SDS011;3792;47.740;7.606;2024-02-04T01:23:08;1.80;;;1.40;;
7501;SDS011;3792;47.740;7.606;2024-02-04T01:25:35;1.47;;;1.37;;
7501;SDS011;3792;47.740;7.606;2024-02-04T01:28:03;0.97;;;0.93;;
7501;SDS011;3792;47.740;7.606;2024-02-04T01:30:30;0.93;;;0.90;;
7501;SDS011;3792;47.740;7.606;2024-02-04T01:32:57;1.20;;;1.10;;
7501;SDS011;3792;47.740;7.606;2024-02-04T01:35:24;1.27;;;1.27;;
7501;SDS011;3792;47.740;7.606;2024-02-04T01:37:51;1.30;;;1.20;;
7501;SDS011;3792;47.740;7.606;2024-02-04T01:40:18;1.53;;;0.80;;
7501;SDS011;3792;47.740;7.606;2024-02-04T01:42:45;1.20;;;1.10;;
7501;SDS011;3792;47.740;7.606;2024-02-04T01:45:13;2.33;;;1.10;;
7501;SDS011;3792;47.740;7.606;2024-02-04T01:47:40;1.40;;;1.10;;
7501;SDS011;3792;47.740;7.606;2024-02-04T01:50:08;1.00;;;1.00;;
7501;SDS011;3792;47.740;7.606;2024-02-04T01:52:36;1.30;;;1.20;;
7501;SDS011;3792;47.740;7.606;2024-02-04T01:55:06;1.37;;;0.93;;
7501;SDS011;3792;47.740;7.606;2024-02-04T01:57:33;1.10;;;1.10;;
7501;SDS011;3792;47.740;7.606;2024-02-04T02:00:01;0.73;;;0.73;;
7501;SDS011;3792;47.740;7.606;2024-02-04T02:02:30;1.13;;;0.87;;
7501;SDS011;3792;47.740;7.606;2024-02-04T02:04:59;1.63;;;1.07;;
7501;SDS011;3792;47.740;7.606;2024-02-04T02:07:26;1.10;;;1.10;;
7501;SDS011;3792;47.740;7.606;2024-02-04T02:09:53;2.40;;;1.00;;
7501;SDS011;3792;47.740;7.606;2024-02-04T02:12:22;1.23;;;1.13;;
7501;SDS011;3792;47.740;7.606;2024-02-04T02:14:54;1.00;;;1.00;;
7501;SDS011;3792;47.740;7.606;2024-02-04T02:17:29;0.93;;;0.90;;
7501;SDS011;3792;47.740;7.606;2024-02-04T02:20:06;2.13;;;1.03;;
7501;SDS011;3792;47.740;7.606;2024-02-04T02:22:45;0.90;;;0.90;;
7501;SDS011;3792;47.740;7.606;2024-02-04T02:25:16;1.00;;;1.00;;
7501;SDS011;3792;47.740;7.606;2024-02-04T02:27:46;0.80;;;0.80;;
7501;SDS011;3792;47.740;7.606;2024-02-04T02:30:12;1.43;;;1.00;;
7501;SDS011;3792;47.740;7.606;2024-02-04T02:32:40;0.70;;;0.70;;
7501;SDS011;3792;47.740;7.606;2024-02-04T02:35:07;0.70;;;0.70;;
7501;SDS011;3792;47.740;7.606;2024-02-04T02:37:36;0.80;;;0.80;;
7501;SDS011;3792;47.740;7.606;2024-02-04T02:40:08;0.60;;;0.60;;
7501;SDS011;3792;47.740;7.606;2024-02-04T02:42:39;0.90;;;0.90;;
7501;SDS011;3792;47.740;7.606;2024-02-04T02:45:09;1.03;;;0.93;;
7501;SDS011;3792;47.740;7.606;2024-02-04T02:47:39;1.97;;;1.00;;
7501;SDS011;3792;47.740;7.606;2024-02-04T02:50:09;1.10;;;1.00;;
7501;SDS011;3792;47.740;7.606;2024-02-04T02:52:36;1.03;;;1.00;;
7501;SDS011;3792;47.740;7.606;2024-02-04T02:55:03;0.73;;;0.73;;
7501;SDS011;3792;47.740;7.606;2024-02-04T02:57:31;0.87;;;0.87;;
7501;SDS011;3792;47.740;7.606;2024-02-04T02:59:59;0.90;;;0.90;;
7501;SDS011;3792;47.740;7.606;2024-02-04T03:02:26;1.03;;;1.03;;
7501;SDS011;3792;47.740;7.606;2024-02-04T03:04:53;1.03;;;0.90;;
7501;SDS011;3792;47.740;7.606;2024-02-04T03:07:20;0.87;;;0.80;;
7501;SDS011;3792;47.740;7.606;2024-02-04T03:09:47;1.10;;;1.10;;
7501;SDS011;3792;47.740;7.606;2024-02-04T03:12:14;1.00;;;1.00;;
7501;SDS011;3792;47.740;7.606;2024-02-04T03:14:41;2.07;;;1.00;;
7501;SDS011;3792;47.740;7.606;2024-02-04T03:17:09;1.20;;;1.10;;
7501;SDS011;3792;47.740;7.606;2024-02-04T03:19:37;1.07;;;0.90;;
7501;SDS011;3792;47.740;7.606;2024-02-04T03:22:04;0.90;;;0.90;;
7501;SDS011;3792;47.740;7.606;2024-02-04T03:24:31;1.03;;;0.80;;
7501;SDS011;3792;47.740;7.606;2024-02-04T03:26:58;0.90;;;0.90;;
7501;SDS011;3792;47.740;7.606;2024-02-04T03:29:25;1.10;;;0.90;;
7501;SDS011;3792;47.740;7.606;2024-02-04T03:31:52;1.03;;;1.00;;
7501;SDS011;3792;47.740;7.606;2024-02-04T03:34:21;0.87;;;0.70;;
7501;SDS011;3792;47.740;7.606;2024-02-04T03:36:48;0.97;;;0.97;;
7501;SDS011;3792;47.740;7.606;2024-02-04T03:39:15;0.70;;;0.70;;
7501;SDS011;3792;47.740;7.606;2024-02-04T03:41:42;1.30;;;0.80;;
7501;SDS011;3792;47.740;7.606;2024-02-04T03:44:09;1.80;;;0.80;;
7501;SDS011;3792;47.740;7.606;2024-02-04T03:46:36;0.60;;;0.60;;
7501;SDS011;3792;47.740;7.606;2024-02-04T03:49:05;1.13;;;0.70;;
7501;SDS011;3792;47.740;7.606;2024-02-04T03:51:34;0.70;;;0.70;;
7501;SDS011;3792;47.740;7.606;2024-02-04T03:54:01;0.67;;;0.67;;
7501;SDS011;3792;47.740;7.606;2024-02-04T03:56:28;0.87;;;0.77;;
7501;SDS011;3792;47.740;7.606;2024-02-04T03:58:56;0.90;;;0.67;;
7501;SDS011;3792;47.740;7.606;2024-02-04T04:01:23;0.50;;;0.50;;
7501;SDS011;3792;47.740;7.606;2024-02-04T04:03:50;0.50;;;0.50;;
7501;SDS011;3792;47.740;7.606;2024-02-04T04:06:16;0.80;;;0.80;;
7501;SDS011;3792;47.740;7.606;2024-02-04T04:08:45;0.50;;;0.50;;
7501;SDS011;3792;47.740;7.606;2024-02-04T04:11:12;0.60;;;0.60;;
7501;SDS011;3792;47.740;7.606;2024-02-04T04:13:39;0.50;;;0.50;;
7501;SDS011;3792;47.740;7.606;2024-02-04T04:16:06;0.70;;;0.70;;
7501;SDS011;3792;47.740;7.606;2024-02-04T04:18:33;3.60;;;0.90;;
7501;SDS011;3792;47.740;7.606;2024-02-04T04:21:02;0.53;;;0.50;;
7501;SDS011;3792;47.740;7.606;2024-02-04T04:23:30;1.70;;;0.80;;
7501;SDS011;3792;47.740;7.606;2024-02-04T04:25:58;0.50;;;0.50;;
7501;SDS011;3792;47.740;7.606;2024-02-04T04:28:25;0.50;;;0.50;;
7501;SDS011;3792;47.740;7.606;2024-02-04T04:30:52;0.63;;;0.63;;
7501;SDS011;3792;47.740;7.606;2024-02-04T04:33:19;0.70;;;0.60;;
7501;SDS011;3792;47.740;7.606;2024-02-04T04:35:46;0.50;;;0.50;;
7501;SDS011;3792;47.740;7.606;2024-02-04T04:38:13;0.60;;;0.60;;
7501;SDS011;3792;47.740;7.606;2024-02-04T04:40:40;0.77;;;0.77;;
7501;SDS011;3792;47.740;7.606;2024-02-04T04:43:09;0.60;;;0.60;;
7501;SDS011;3792;47.740;7.606;2024-02-04T04:45:36;0.70;;;0.70;;
7501;SDS011;3792;47.740;7.606;2024-02-04T04:48:03;0.87;;;0.50;;
7501;SDS011;3792;47.740;7.606;2024-02-04T04:50:32;0.60;;;0.60;;
7501;SDS011;3792;47.740;7.606;2024-02-04T04:52:59;0.50;;;0.50;;
7501;SDS011;3792;47.740;7.606;2024-02-04T04:55:26;0.40;;;0.40;;
7501;SDS011;3792;47.740;7.606;2024-02-04T04:57:53;0.77;;;0.60;;
7501;SDS011;3792;47.740;7.606;2024-02-04T05:00:22;0.50;;;0.50;;
7501;SDS011;3792;47.740;7.606;2024-02-04T05:02:49;0.60;;;0.60;;
7501;SDS011;3792;47.740;7.606;2024-02-04T05:05:16;0.50;;;0.50;;
7501;SDS011;3792;47.740;7.606;2024-02-04T05:07:43;0.50;;;0.50;;
7501;SDS011;3792;47.740;7.606;2024-02-04T05:10:12;1.00;;;0.70;;
7501;SDS011;3792;47.740;7.606;2024-02-04T05:12:39;0.20;;;0.20;;
7501;SDS011;3792;47.740;7.606;2024-02-04T05:15:06;0.93;;;0.67;;
7501;SDS011;3792;47.740;7.606;2024-02-04T05:17:35;0.50;;;0.50;;
7501;SDS011;3792;47.740;7.606;2024-02-04T05:20:02;0.70;;;0.70;;
7501;SDS011;3792;47.740;7.606;2024-02-04T05:22:30;3.40;;;0.60;;
7501;SDS011;3792;47.740;7.606;2024-02-04T05:24:57;0.37;;;0.37;;
7501;SDS011;3792;47.740;7.606;2024-02-04T05:27:24;0.57;;;0.40;;
7501;SDS011;3792;47.740;7.606;2024-02-04T05:29:51;0.60;;;0.60;;
7501;SDS011;3792;47.740;7.606;2024-02-04T05:32:18;0.40;;;0.40;;
7501;SDS011;3792;47.740;7.606;2024-02-04T05:34:47;0.50;;;0.50;;
7501;SDS011;3792;47.740;7.606;2024-02-04T05:37:14;0.40;;;0.40;;
7501;SDS011;3792;47.740;7.606;2024-02-04T05:39:41;0.30;;;0.30;;
7501;SDS011;3792;47.740;7.606;2024-02-04T05:42:08;1.00;;;0.40;;
7501;SDS011;3792;47.740;7.606;2024-02-04T05:44:35;0.30;;;0.30;;
7501;SDS011;3792;47.740;7.606;2024-02-04T05:47:02;0.40;;;0.40;;
7501;SDS011;3792;47.740;7.606;2024-02-04T05:49:29;0.40;;;0.40;;
7501;SDS011;3792;47.740;7.606;2024-02-04T05:51:57;0.40;;;0.40;;
7501;SDS011;3792;47.740;7.606;2024-02-04T05:54:24;0.60;;;0.60;;
7501;SDS011;3792;47.740;7.606;2024-02-04T05:56:51;0.40;;;0.40;;
7501;SDS011;3792;47.740;7.606;2024-02-04T05:59:18;0.30;;;0.30;;
7501;SDS011;3792;47.740;7.606;2024-02-04T06:01:45;0.77;;;0.30;;
7501;SDS011;3792;47.740;7.606;2024-02-04T06:04:12;0.30;;;0.30;;
7501;SDS011;3792;47.740;7.606;2024-02-04T06:06:39;0.87;;;0.37;;
7501;SDS011;3792;47.740;7.606;2024-02-04T06:09:07;0.40;;;0.40;;
7501;SDS011;3792;47.740;7.606;2024-02-04T06:11:35;0.57;;;0.57;;
7501;SDS011;3792;47.740;7.606;2024-02-04T06:14:02;0.70;;;0.70;;
7501;SDS011;3792;47.740;7.606;2024-02-04T06:16:29;0.30;;;0.30;;
7501;SDS011;3792;47.740;7.606;2024-02-04T06:18:59;0.30;;;0.30;;
7501;SDS011;3792;47.740;7.606;2024-02-04T06:21:26;0.40;;;0.40;;
7501;SDS011;3792;47.740;7.606;2024-02-04T06:23:53;0.30;;;0.30;;
7501;SDS011;3792;47.740;7.606;2024-02-04T06:26:21;0.40;;;0.40;;
7501;SDS011;3792;47.740;7.606;2024-02-04T06:28:48;0.30;;;0.30;;
7501;SDS011;3792;47.740;7.606;2024-02-04T06:31:16;0.37;;;0.30;;
7501;SDS011;3792;47.740;7.606;2024-02-04T06:33:43;0.30;;;0.30;;
7501;SDS011;3792;47.740;7.606;2024-02-04T06:36:10;0.23;;;0.23;;
7501;SDS011;3792;47.740;7.606;2024-02-04T06:38:37;0.20;;;0.20;;
7501;SDS011;3792;47.740;7.606;2024-02-04T06:41:04;0.30;;;0.30;;
7501;SDS011;3792;47.740;7.606;2024-02-04T06:43:33;0.30;;;0.30;;
7501;SDS011;3792;47.740;7.606;2024-02-04T06:46:03;0.37;;;0.37;;
7501;SDS011;3792;47.740;7.606;2024-02-04T06:48:30;0.30;;;0.30;;
7501;SDS011;3792;47.740;7.606;2024-02-04T06:50:57;0.37;;;0.37;;
7501;SDS011;3792;47.740;7.606;2024-02-04T06:53:24;0.30;;;0.30;;
7501;SDS011;3792;47.740;7.606;2024-02-04T06:55:51;0.20;;;0.20;;
7501;SDS011;3792;47.740;7.606;2024-02-04T06:58:18;1.37;;;0.40;;
7501;SDS011;3792;47.740;7.606;2024-02-04T07:00:47;0.40;;;0.30;;
7501;SDS011;3792;47.740;7.606;2024-02-04T07:03:14;0.33;;;0.30;;
7501;SDS011;3792;47.740;7.606;2024-02-04T07:05:41;0.20;;;0.20;;
7501;SDS011;3792;47.740;7.606;2024-02-04T07:08:11;0.23;;;0.23;;
7501;SDS011;3792;47.740;7.606;2024-02-04T07:10:38;1.40;;;0.27;;
7501;SDS011;3792;47.740;7.606;2024-02-04T07:13:05;0.30;;;0.30;;
7501;SDS011;3792;47.740;7.606;2024-02-04T07:15:33;0.17;;;0.17;;
7501;SDS011;3792;47.740;7.606;2024-02-04T07:18:01;0.30;;;0.30;;
7501;SDS011;3792;47.740;7.606;2024-02-04T07:20:28;0.60;;;0.47;;
7501;SDS011;3792;47.740;7.606;2024-02-04T07:22:55;0.20;;;0.20;;
7501;SDS011;3792;47.740;7.606;2024-02-04T07:25:22;0.53;;;0.30;;
7501;SDS011;3792;47.740;7.606;2024-02-04T07:27:49;0.40;;;0.37;;
7501;SDS011;3792;47.740;7.606;2024-02-04T07:30:17;0.30;;;0.30;;
7501;SDS011;3792;47.740;7.606;2024-02-04T07:32:44;0.30;;;0.30;;
7501;SDS011;3792;47.740;7.606;2024-02-04T07:35:12;0.57;;;0.37;;
7501;SDS011;3792;47.740;7.606;2024-02-04T07:37:39;0.30;;;0.30;;
7501;SDS011;3792;47.740;7.606;2024-02-04T07:40:06;0.40;;;0.30;;
7501;SDS011;3792;47.740;7.606;2024-02-04T07:42:34;0.50;;;0.50;;
7501;SDS011;3792;47.740;7.606;2024-02-04T07:45:01;2.07;;;0.40;;
7501;SDS011;3792;47.740;7.606;2024-02-04T07:47:33;0.73;;;0.40;;
7501;SDS011;3792;47.740;7.606;2024-02-04T07:50:00;0.40;;;0.40;;
7501;SDS011;3792;47.740;7.606;2024-02-04T07:52:29;0.50;;;0.50;;
7501;SDS011;3792;47.740;7.606;2024-02-04T07:54:56;0.50;;;0.50;;
7501;SDS011;3792;47.740;7.606;2024-02-04T07:57:23;0.43;;;0.30;;
7501;SDS011;3792;47.740;7.606;2024-02-04T07:59:50;0.30;;;0.30;;
7501;SDS011;3792;47.740;7.606;2024-02-04T08:02:17;0.40;;;0.40;;
7501;SDS011;3792;47.740;7.606;2024-02-04T08:04:44;0.33;;;0.33;;
7501;SDS011;3792;47.740;7.606;2024-02-04T08:07:11;1.23;;;0.30;;
7501;SDS011;3792;47.740;7.606;2024-02-04T08:09:39;0.47;;;0.40;;
7501;SDS011;3792;47.740;7.606;2024-02-04T08:12:07;0.33;;;0.33;;
7501;SDS011;3792;47.740;7.606;2024-02-04T08:14:35;0.43;;;0.40;;
7501;SDS011;3792;47.740;7.606;2024-02-04T08:17:02;0.20;;;0.20;;
7501;SDS011;3792;47.740;7.606;2024-02-04T08:19:29;0.40;;;0.40;;
7501;SDS011;3792;47.740;7.606;2024-02-04T08:21:56;0.57;;;0.30;;
7501;SDS011;3792;47.740;7.606;2024-02-04T08:24:23;0.47;;;0.40;;
7501;SDS011;3792;47.740;7.606;2024-02-04T08:26:52;0.40;;;0.40;;
7501;SDS011;3792;47.740;7.606;2024-02-04T08:29:19;0.40;;;0.40;;
7501;SDS011;3792;47.740;7.606;2024-02-04T08:31:46;1.23;;;1.00;;
7501;SDS011;3792;47.740;7.606;2024-02-04T08:34:20;1.40;;;1.10;;
7501;SDS011;3792;47.740;7.606;2024-02-04T08:36:49;0.90;;;0.90;;
7501;SDS011;3792;47.740;7.606;2024-02-04T08:39:17;0.70;;;0.70;;
7501;SDS011;3792;47.740;7.606;2024-02-04T08:41:45;2.07;;;0.60;;
7501;SDS011;3792;47.740;7.606;2024-02-04T08:44:13;0.47;;;0.47;;
7501;SDS011;3792;47.740;7.606;2024-02-04T08:46:40;1.07;;;0.90;;
7501;SDS011;3792;47.740;7.606;2024-02-04T08:49:07;0.90;;;0.90;;
7501;SDS011;3792;47.740;7.606;2024-02-04T08:51:34;0.90;;;0.90;;
7501;SDS011;3792;47.740;7.606;2024-02-04T08:54:01;0.60;;;0.60;;
7501;SDS011;3792;47.740;7.606;2024-02-04T08:56:29;1.13;;;0.73;;
7501;SDS011;3792;47.740;7.606;2024-02-04T08:58:56;0.53;;;0.53;;
7501;SDS011;3792;47.740;7.606;2024-02-04T09:01:26;1.33;;;0.60;;
7501;SDS011;3792;47.740;7.606;2024-02-04T09:03:53;0.80;;;0.80;;
7501;SDS011;3792;47.740;7.606;2024-02-04T09:06:20;0.40;;;0.40;;
7501;SDS011;3792;47.740;7.606;2024-02-04T09:08:47;0.43;;;0.43;;
7501;SDS011;3792;47.740;7.606;2024-02-04T09:11:14;0.63;;;0.63;;
7501;SDS011;3792;47.740;7.606;2024-02-04T09:13:44;0.50;;;0.50;;
7501;SDS011;3792;47.740;7.606;2024-02-04T09:16:11;0.40;;;0.40;;
7501;SDS011;3792;47.740;7.606;2024-02-04T09:18:39;0.70;;;0.70;;
7501;SDS011;3792;47.740;7.606;2024-02-04T09:21:06;0.53;;;0.53;;
7501;SDS011;3792;47.740;7.606;2024-02-04T09:23:33;0.50;;;0.50;;
7501;SDS011;3792;47.740;7.606;2024-02-04T09:26:00;0.53;;;0.53;;
7501;SDS011;3792;47.740;7.606;2024-02-04T09:28:27;0.30;;;0.30;;
7501;SDS011;3792;47.740;7.606;2024-02-04T09:30:55;0.50;;;0.50;;
7501;SDS011;3792;47.740;7.606;2024-02-04T09:33:22;0.50;;;0.50;;
7501;SDS011;3792;47.740;7.606;2024-02-04T09:35:50;3.13;;;2.20;;
7501;SDS011;3792;47.740;7.606;2024-02-04T09:38:17;0.50;;;0.50;;
7501;SDS011;3792;47.740;7.606;2024-02-04T09:40:44;0.30;;;0.30;;
7501;SDS011;3792;47.740;7.606;2024-02-04T09:43:11;0.47;;;0.47;;
7501;SDS011;3792;47.740;7.606;2024-02-04T09:45:39;0.60;;;0.60;;
7501;SDS011;3792;47.740;7.606;2024-02-04T09:48:06;0.50;;;0.50;;
7501;SDS011;3792;47.740;7.606;2024-02-04T09:50:35;0.50;;;0.50;;
7501;SDS011;3792;47.740;7.606;2024-02-04T09:53:03;0.27;;;0.20;;
7501;SDS011;3792;47.740;7.606;2024-02-04T09:55:35;0.50;;;0.50;;
7501;SDS011;3792;47.740;7.606;2024-02-04T09:58:04;0.50;;;0.50;;
7501;SDS011;3792;47.740;7.606;2024-02-04T10:00:31;0.57;;;0.57;;
7501;SDS011;3792;47.740;7.606;2024-02-04T10:03:15;0.50;;;0.50;;
7501;SDS011;3792;47.740;7.606;2024-02-04T10:05:43;0.63;;;0.43;;
7501;SDS011;3792;47.740;7.606;2024-02-04T10:08:11;0.80;;;0.80;;
7501;SDS011;3792;47.740;7.606;2024-02-04T10:10:40;0.70;;;0.70;;
7501;SDS011;3792;47.740;7.606;2024-02-04T10:13:07;1.07;;;0.50;;
7501;SDS011;3792;47.740;7.606;2024-02-04T10:15:35;0.30;;;0.30;;
7501;SDS011;3792;47.740;7.606;2024-02-04T10:18:03;0.70;;;0.70;;
7501;SDS011;3792;47.740;7.606;2024-02-04T10:20:31;0.60;;;0.60;;
7501;SDS011;3792;47.740;7.606;2024-02-04T10:22:58;0.53;;;0.53;;
7501;SDS011;3792;47.740;7.606;2024-02-04T10:25:27;1.70;;;0.70;;
7501;SDS011;3792;47.740;7.606;2024-02-04T10:27:54;0.40;;;0.40;;
7501;SDS011;3792;47.740;7.606;2024-02-04T10:30:23;0.40;;;0.40;;
7501;SDS011;3792;47.740;7.606;2024-02-04T10:32:50;0.53;;;0.43;;
7501;SDS011;3792;47.740;7.606;2024-02-04T10:35:20;0.30;;;0.30;;
7501;SDS011;3792;47.740;7.606;2024-02-04T10:37:48;1.00;;;0.30;;
7501;SDS011;3792;47.740;7.606;2024-02-04T10:40:16;0.30;;;0.30;;
7501;SDS011;3792;47.740;7.606;2024-02-04T10:42:45;0.40;;;0.40;;
7501;SDS011;3792;47.740;7.606;2024-02-04T10:45:17;0.30;;;0.30;;
7501;SDS011;3792;47.740;7.606;2024-02-04T10:47:46;0.50;;;0.50;;
7501;SDS011;3792;47.740;7.606;2024-02-04T10:50:22;0.40;;;0.40;;
7501;SDS011;3792;47.740;7.606;2024-02-04T10:52:50;0.70;;;0.70;;
7501;SDS011;3792;47.740;7.606;2024-02-04T10:55:18;0.33;;;0.33;;
7501;SDS011;3792;47.740;7.606;2024-02-04T10:57:54;0.30;;;0.30;;
7501;SDS011;3792;47.740;7.606;2024-02-04T11:00:21;0.30;;;0.30;;
7501;SDS011;3792;47.740;7.606;2024-02-04T11:02:49;0.70;;;0.70;;
7501;SDS011;3792;47.740;7.606;2024-02-04T11:05:19;0.90;;;0.50;;
7501;SDS011;3792;47.740;7.606;2024-02-04T11:07:47;0.20;;;0.20;;
7501;SDS011;3792;47.740;7.606;2024-02-04T11:10:17;0.37;;;0.37;;
7501;SDS011;3792;47.740;7.606;2024-02-04T11:12:46;0.30;;;0.30;;
7501;SDS011;3792;47.740;7.606;2024-02-04T11:15:17;0.47;;;0.47;;
7501;SDS011;3792;47.740;7.606;2024-02-04T11:21:02;0.43;;;0.43;;
7501;SDS011;3792;47.740;7.606;2024-02-04T11:23:44;0.83;;;0.50;;
7501;SDS011;3792;47.740;7.606;2024-02-04T11:26:20;0.40;;;0.40;;
7501;SDS011;3792;47.740;7.606;2024-02-04T11:28:51;0.40;;;0.40;;
7501;SDS011;3792;47.740;7.606;2024-02-04T11:31:21;0.60;;;0.60;;
7501;SDS011;3792;47.740;7.606;2024-02-04T11:33:51;0.70;;;0.70;;
7501;SDS011;3792;47.740;7.606;2024-02-04T11:36:23;1.27;;;0.43;;
7501;SDS011;3792;47.740;7.606;2024-02-04T11:38:51;0.80;;;0.80;;
7501;SDS011;3792;47.740;7.606;2024-02-04T11:41:22;1.07;;;0.90;;
7501;SDS011;3792;47.740;7.606;2024-02-04T11:43:52;0.50;;;0.40;;
7501;SDS011;3792;47.740;7.606;2024-02-04T11:46:27;0.50;;;0.50;;
7501;SDS011;3792;47.740;7.606;2024-02-04T11:48:55;0.30;;;0.30;;
7501;SDS011;3792;47.740;7.606;2024-02-04T11:51:23;0.57;;;0.57;;
7501;SDS011;3792;47.740;7.606;2024-02-04T11:53:50;0.73;;;0.40;;
7501;SDS011;3792;47.740;7.606;2024-02-04T11:56:18;0.70;;;0.70;;
7501;SDS011;3792;47.740;7.606;2024-02-04T11:58:45;0.40;;;0.40;;
7501;SDS011;3792;47.740;7.606;2024-02-04T12:01:15;0.73;;;0.73;;
7501;SDS011;3792;47.740;7.606;2024-02-04T12:03:43;0.60;;;0.60;;
7501;SDS011;3792;47.740;7.606;2024-02-04T12:06:11;0.87;;;0.80;;
7501;SDS011;3792;47.740;7.606;2024-02-04T12:08:41;0.90;;;0.90;;
7501;SDS011;3792;47.740;7.606;2024-02-04T12:11:08;0.50;;;0.50;;
7501;SDS011;3792;47.740;7.606;2024-02-04T12:13:36;0.80;;;0.80;;
7501;SDS011;3792;47.740;7.606;2024-02-04T12:16:05;0.60;;;0.60;;
7501;SDS011;3792;47.740;7.606;2024-02-04T12:18:34;0.73;;;0.57;;
7501;SDS011;3792;47.740;7.606;2024-02-04T12:21:02;1.30;;;0.70;;
7501;SDS011;3792;47.740;7.606;2024-02-04T12:23:29;0.80;;;0.80;;
7501;SDS011;3792;47.740;7.606;2024-02-04T12:25:57;0.60;;;0.60;;
7501;SDS011;3792;47.740;7.606;2024-02-04T12:28:25;0.60;;;0.60;;
7501;SDS011;3792;47.740;7.606;2024-02-04T12:30:53;0.97;;;0.80;;
7501;SDS011;3792;47.740;7.606;2024-02-04T12:33:21;0.80;;;0.80;;
7501;SDS011;3792;47.740;7.606;2024-02-04T12:35:51;0.67;;;0.50;;
7501;SDS011;3792;47.740;7.606;2024-02-04T12:38:23;1.70;;;0.50;;
7501;SDS011;3792;47.740;7.606;2024-02-04T12:40:51;0.60;;;0.60;;
7501;SDS011;3792;47.740;7.606;2024-02-04T12:43:18;0.47;;;0.47;;
7501;SDS011;3792;47.740;7.606;2024-02-04T12:45:46;0.50;;;0.50;;
7501;SDS011;3792;47.740;7.606;2024-02-04T12:48:14;0.60;;;0.60;;
7501;SDS011;3792;47.740;7.606;2024-02-04T12:50:43;0.60;;;0.60;;
7501;SDS011;3792;47.740;7.606;2024-02-04T12:53:10;1.57;;;1.47;;
7501;SDS011;3792;47.740;7.606;2024-02-04T12:55:40;0.70;;;0.70;;
7501;SDS011;3792;47.740;7.606;2024-02-04T12:58:08;1.03;;;0.60;;
7501;SDS011;3792;47.740;7.606;2024-02-04T13:00:37;0.60;;;0.60;;
7501;SDS011;3792;47.740;7.606;2024-02-04T13:03:06;0.93;;;0.80;;
7501;SDS011;3792;47.740;7.606;2024-02-04T13:05:34;0.70;;;0.70;;
7501;SDS011;3792;47.740;7.606;2024-02-04T13:08:03;1.40;;;0.80;;
7501;SDS011;3792;47.740;7.606;2024-02-04T13:10:36;0.83;;;0.80;;
7501;SDS011;3792;47.740;7.606;2024-02-04T13:13:07;0.60;;;0.60;;
7501;SDS011;3792;47.740;7.606;2024-02-04T13:15:37;0.60;;;0.60;;
7501;SDS011;3792;47.740;7.606;2024-02-04T13:18:05;0.70;;;0.70;;
7501;SDS011;3792;47.740;7.606;2024-02-04T13:20:32;1.87;;;0.90;;
7501;SDS011;3792;47.740;7.606;2024-02-04T13:23:00;0.90;;;0.90;;
7501;SDS011;3792;47.740;7.606;2024-02-04T13:25:30;1.03;;;0.90;;
7501;SDS011;3792;47.740;7.606;2024-02-04T13:27:57;1.23;;;1.13;;
7501;SDS011;3792;47.740;7.606;2024-02-04T13:30:26;2.20;;;0.73;;
7501;SDS011;3792;47.740;7.606;2024-02-04T13:32:53;0.80;;;0.80;;
7501;SDS011;3792;47.740;7.606;2024-02-04T13:35:22;0.67;;;0.60;;
7501;SDS011;3792;47.740;7.606;2024-02-04T13:37:50;0.80;;;0.80;;
7501;SDS011;3792;47.740;7.606;2024-02-04T13:40:18;1.37;;;0.83;;
7501;SDS011;3792;47.740;7.606;2024-02-04T13:42:46;0.60;;;0.60;;
7501;SDS011;3792;47.740;7.606;2024-02-04T13:45:13;1.40;;;0.97;;
7501;SDS011;3792;47.740;7.606;2024-02-04T13:47:42;1.23;;;0.80;;
7501;SDS011;3792;47.740;7.606;2024-02-04T13:50:10;0.83;;;0.83;;
7501;SDS011;3792;47.740;7.606;2024-02-04T13:52:38;1.30;;;0.90;;
7501;SDS011;3792;47.740;7.606;2024-02-04T13:55:05;0.83;;;0.83;;
7501;SDS011;3792;47.740;7.606;2024-02-04T13:57:33;1.53;;;0.87;;
7501;SDS011;3792;47.740;7.606;2024-02-04T14:00:00;1.13;;;1.03;;
7501;SDS011;3792;47.740;7.606;2024-02-04T14:02:29;1.03;;;0.97;;
7501;SDS011;3792;47.740;7.606;2024-02-04T14:04:59;1.37;;;0.73;;
7501;SDS011;3792;47.740;7.606;2024-02-04T14:07:29;1.20;;;1.07;;
7501;SDS011;3792;47.740;7.606;2024-02-04T14:10:08;1.30;;;0.83;;
7501;SDS011;3792;47.740;7.606;2024-02-04T14:12:43;1.20;;;1.10;;
7501;SDS011;3792;47.740;7.606;2024-02-04T14:15:13;1.93;;;1.23;;
7501;SDS011;3792;47.740;7.606;2024-02-04T14:17:40;2.57;;;1.00;;
7501;SDS011;3792;47.740;7.606;2024-02-04T14:20:09;1.53;;;1.00;;
7501;SDS011;3792;47.740;7.606;2024-02-04T14:22:39;1.07;;;0.97;;
7501;SDS011;3792;47.740;7.606;2024-02-04T14:25:06;1.30;;;1.10;;
7501;SDS011;3792;47.740;7.606;2024-02-04T14:27:33;0.97;;;0.90;;
7501;SDS011;3792;47.740;7.606;2024-02-04T14:30:02;1.27;;;1.17;;
7501;SDS011;3792;47.740;7.606;2024-02-04T14:32:29;2.63;;;1.33;;
7501;SDS011;3792;47.740;7.606;2024-02-04T14:34:59;2.27;;;1.30;;
7501;SDS011;3792;47.740;7.606;2024-02-04T14:37:31;1.67;;;1.27;;
7501;SDS011;3792;47.740;7.606;2024-02-04T14:40:00;3.43;;;1.10;;
7501;SDS011;3792;47.740;7.606;2024-02-04T14:42:29;1.10;;;1.00;;
7501;SDS011;3792;47.740;7.606;2024-02-04T14:45:00;1.63;;;1.27;;
7501;SDS011;3792;47.740;7.606;2024-02-04T14:47:27;2.50;;;1.30;;
7501;SDS011;3792;47.740;7.606;2024-02-04T14:49:55;1.50;;;1.40;;
7501;SDS011;3792;47.740;7.606;2024-02-04T14:52:22;1.30;;;1.17;;
7501;SDS011;3792;47.740;7.606;2024-02-04T14:54:51;3.63;;;1.40;;
7501;SDS011;3792;47.740;7.606;2024-02-04T14:57:18;3.20;;;1.53;;
7501;SDS011;3792;47.740;7.606;2024-02-04T14:59:46;1.77;;;1.30;;
7501;SDS011;3792;47.740;7.606;2024-02-04T15:02:13;1.60;;;1.50;;
7501;SDS011;3792;47.740;7.606;2024-02-04T15:04:40;2.10;;;1.50;;
7501;SDS011;3792;47.740;7.606;2024-02-04T15:07:06;2.43;;;1.93;;
7501;SDS011;3792;47.740;7.606;2024-02-04T15:09:34;2.00;;;1.60;;
7501;SDS011;3792;47.740;7.606;2024-02-04T15:12:03;1.77;;;1.67;;
7501;SDS011;3792;47.740;7.606;2024-02-04T15:14:31;2.20;;;1.60;;
7501;SDS011;3792;47.740;7.606;2024-02-04T15:17:02;2.40;;;2.07;;
7501;SDS011;3792;47.740;7.606;2024-02-04T15:19:32;1.70;;;1.60;;
7501;SDS011;3792;47.740;7.606;2024-02-04T15:22:01;1.80;;;1.70;;
7501;SDS011;3792;47.740;7.606;2024-02-04T15:24:29;1.83;;;1.53;;